Spacecraft Satellite overpass computed based on SGP4 code. Updated every day at 2:25 LT
Spacecraft : Terra    
         GMT                             Satellite      Satellite     Solar          Solar         Scat ang       
  year-mo-da hr:mn:sc    elevation     azimuth    elevation   azimuth    (bk=180)     
  2017-11-21 08:17:59     17.3             89.5          15.3           150.7         121.4
  2017-11-21 09:56:12     69.3            287.9          20.0           174.4         100.8
  2017-11-21 11:33:07     12.2            307.2          18.2           198.5          76.6
  2017-11-21 19:28:55     31.7             64.3         -44.6           296.0        -999.0
  2017-11-21 21:06:35     37.9            262.8         -56.4           327.9        -999.0
Spacecraft : Aqua    
         GMT                             Satellite      Satellite     Solar          Solar         Scat ang       
  year-mo-da hr:mn:sc    elevation     azimuth    elevation   azimuth    (bk=180)     
  2017-11-21 00:30:55     65.3            102.1         -49.6            53.3        -999.0
  2017-11-21 02:08:14     20.4            300.9         -35.3            78.1        -999.0
  2017-11-21 10:03:56     19.1             58.3          20.1           176.4          72.2
  2017-11-21 11:41:12     70.6            257.1          17.8           200.4         117.5
  2017-11-21 23:35:37     22.0             91.9         -56.0            34.2        -999.0
Spacecraft : CALIPSO    
         GMT                             Satellite      Satellite     Solar          Solar         Scat ang       
  year-mo-da hr:mn:sc    elevation     azimuth    elevation   azimuth    (bk=180)     
  2017-11-21 00:32:37     56.2            100.9         -49.4            53.8        -999.0
  2017-11-21 02:10:02     22.9            299.5         -35.1            78.5        -999.0
  2017-11-21 10:05:44     16.9             56.8          20.1           176.8          69.6
  2017-11-21 11:42:54     81.4            255.9          17.7           200.8         112.5
  2017-11-21 13:21:24     11.5            274.3           9.4           223.0         129.5
  2017-11-21 23:37:15     19.1             90.5         -55.8            34.8        -999.0
Spacecraft : CloudSat    
         GMT                             Satellite      Satellite     Solar          Solar         Scat ang       
  year-mo-da hr:mn:sc    elevation     azimuth    elevation   azimuth    (bk=180)     
  2017-11-21 00:34:03     55.9            100.7         -49.2            54.3        -999.0
  2017-11-21 02:11:28     23.0            299.4         -34.8            78.8        -999.0
  2017-11-21 10:07:09     16.9             56.8          20.1           177.2          69.2
  2017-11-21 11:44:19     81.9            255.7          17.6           201.1         112.2
  2017-11-21 13:22:49     11.6            274.3           9.2           223.3         129.9
  2017-11-21 23:38:40     19.0             90.4         -55.7            35.3        -999.0
Spacecraft : ISS    
         GMT                             Satellite      Satellite     Solar          Solar         Scat ang       
  year-mo-da hr:mn:sc    elevation     azimuth    elevation   azimuth    (bk=180)     
  2017-11-21 00:18:47     89.2            197.4         -51.1            49.5        -999.0
  2017-11-21 01:55:00     24.8            215.1         -37.4            75.2        -999.0
  2017-11-21 20:13:28     41.1            151.3         -50.7           308.8        -999.0
  2017-11-21 21:49:52     71.6            350.4         -59.1           346.6        -999.0
  2017-11-21 23:26:30     73.7             10.5         -56.8            30.5        -999.0